Time;durP1;ratioP1;P1;durP2;ratioP2;P2;SDS_P1;SDS_P2;PMS_P1;PMS_P2;Temp;Humidity;BMP_temperature;BMP_pressure;BME280_temperature;BME280_humidity;BME280_pressure;Samples;Min_cycle;Max_cycle;Signal;HPM_P1;HPM_P2
2022/07/05 00:00:35;;;;;;;;;;;13.00;99.90;;;;;;5137537;27;19948;-71
2022/07/05 00:03:01;;;;;;;;;;;13.00;99.90;;;;;;5140831;27;19976;-71
2022/07/05 00:05:26;;;;;;;;;;;13.20;99.90;;;;;;5155619;27;19935;-71
2022/07/05 00:07:52;;;;;;;;;;;13.00;99.90;;;;;;5144679;27;19969;-72
2022/07/05 00:10:17;;;;;;;;;;;12.90;99.90;;;;;;5141208;27;20335;-72
2022/07/05 00:12:46;;;;;;;;;;;12.90;99.90;;;;;;5142176;27;20877;-71
2022/07/05 00:15:14;;;;;;;;;;;12.90;99.90;;;;;;5140163;27;20324;-72
2022/07/05 00:17:40;;;;;;;;;;;12.90;99.90;;;;;;5139272;27;19966;-72
2022/07/05 00:20:06;;;;;;;;;;;12.80;99.90;;;;;;5139657;27;19962;-71
2022/07/05 00:22:31;;;;;;;;;;;12.80;99.90;;;;;;5140510;27;19923;-72
2022/07/05 00:24:57;;;;;;;;;;;12.70;99.90;;;;;;5134999;27;20371;-73
2022/07/05 00:27:22;;;;;;;;;;;13.00;99.90;;;;;;5130232;27;20346;-73
2022/07/05 00:29:48;;;;;;;;;;;12.60;99.90;;;;;;5145673;27;19927;-73
2022/07/05 00:32:13;;;;;;;;;;;12.60;99.90;;;;;;5163229;27;19966;-74
2022/07/05 00:34:42;;;;;;;;;;;13.00;99.90;;;;;;5148192;27;19974;-74
2022/07/05 00:37:07;;;;;;;;;;;12.50;99.90;;;;;;5165539;27;20582;-74
2022/07/05 00:39:33;;;;;;;;;;;12.50;99.90;;;;;;5149092;27;19956;-73
2022/07/05 00:42:00;;;;;;;;;;;12.50;99.90;;;;;;5165085;27;19923;-73
2022/07/05 00:44:34;;;;;;;;;;;12.60;99.90;;;;;;5144779;27;19931;-73
2022/07/05 00:47:01;;;;;;;;;;;12.60;99.90;;;;;;5166728;27;20377;-73
2022/07/05 00:49:26;;;;;;;;;;;12.60;99.90;;;;;;5165307;27;20013;-73
2022/07/05 00:51:52;;;;;;;;;;;12.60;99.90;;;;;;5167865;27;20017;-74
2022/07/05 00:54:18;;;;;;;;;;;12.60;99.90;;;;;;5164778;27;20007;-73
2022/07/05 00:56:44;;;;;;;;;;;12.60;99.90;;;;;;5149149;27;19958;-73
2022/07/05 00:59:09;;;;;;;;;;;12.50;99.90;;;;;;5141630;27;20453;-73
2022/07/05 01:01:35;;;;;;;;;;;12.50;99.90;;;;;;5166979;27;19923;-73
2022/07/05 01:04:00;;;;;;;;;;;12.40;99.90;;;;;;5147896;27;20412;-72
2022/07/05 01:06:28;;;;;;;;;;;12.40;99.90;;;;;;5146861;27;20359;-73
2022/07/05 01:08:54;;;;;;;;;;;12.40;99.90;;;;;;5148456;27;20005;-73
2022/07/05 01:11:20;;;;;;;;;;;12.40;99.90;;;;;;5164658;27;19923;-72
2022/07/05 01:13:46;;;;;;;;;;;12.40;99.90;;;;;;5145283;27;20033;-73
2022/07/05 01:16:12;;;;;;;;;;;12.40;99.90;;;;;;5148668;27;20285;-73
2022/07/05 01:18:38;;;;;;;;;;;12.40;99.90;;;;;;5146632;27;20026;-73
2022/07/05 01:21:03;;;;;;;;;;;12.40;99.90;;;;;;5147176;27;20382;-73
2022/07/05 01:23:38;;;;;;;;;;;12.40;99.90;;;;;;5144460;27;20013;-73
2022/07/05 01:26:06;;;;;;;;;;;12.30;99.90;;;;;;5146280;27;19933;-73
2022/07/05 01:28:31;;;;;;;;;;;12.40;99.90;;;;;;5165477;27;19933;-73
2022/07/05 01:30:59;;;;;;;;;;;12.30;99.90;;;;;;5164613;27;20014;-73
2022/07/05 01:33:29;;;;;;;;;;;12.40;99.90;;;;;;5147306;27;19922;-73
2022/07/05 01:35:55;;;;;;;;;;;12.30;99.90;;;;;;5146320;27;19923;-73
2022/07/05 01:38:21;;;;;;;;;;;12.20;99.90;;;;;;5164003;27;19968;-74
2022/07/05 01:40:51;;;;;;;;;;;12.30;99.90;;;;;;5144259;27;19919;-73
2022/07/05 01:43:21;;;;;;;;;;;12.60;99.90;;;;;;5167863;27;19987;-73
2022/07/05 01:45:47;;;;;;;;;;;12.30;99.90;;;;;;5145147;27;19923;-73
2022/07/05 01:48:13;;;;;;;;;;;12.30;99.90;;;;;;5166119;27;20012;-73
2022/07/05 01:50:47;;;;;;;;;;;12.80;99.90;;;;;;5159445;27;19927;-73
2022/07/05 01:53:22;;;;;;;;;;;12.30;99.90;;;;;;5159779;27;19919;-73
2022/07/05 01:55:48;;;;;;;;;;;12.40;99.90;;;;;;5140790;27;19929;-73
2022/07/05 01:58:14;;;;;;;;;;;12.20;99.90;;;;;;5144797;27;20002;-73
2022/07/05 02:00:46;;;;;;;;;;;12.20;99.90;;;;;;5166916;27;19990;-73
2022/07/05 02:03:12;;;;;;;;;;;12.20;99.90;;;;;;5140764;27;20386;-73
2022/07/05 02:05:38;;;;;;;;;;;12.20;99.90;;;;;;5167279;27;19970;-73
2022/07/05 02:08:03;;;;;;;;;;;12.30;99.90;;;;;;5143124;27;19931;-72
2022/07/05 02:10:29;;;;;;;;;;;12.30;99.90;;;;;;5163165;27;19923;-73
2022/07/05 02:12:54;;;;;;;;;;;12.30;99.90;;;;;;5164958;27;19944;-73
2022/07/05 02:15:20;;;;;;;;;;;12.30;99.90;;;;;;5164553;27;20496;-73
2022/07/05 02:17:45;;;;;;;;;;;12.30;99.90;;;;;;5163781;27;19923;-73
2022/07/05 02:20:11;;;;;;;;;;;12.30;99.90;;;;;;5165917;27;20025;-73
2022/07/05 02:22:36;;;;;;;;;;;12.30;99.90;;;;;;5139419;27;19923;-73
2022/07/05 02:25:02;;;;;;;;;;;12.90;99.90;;;;;;5144080;27;19996;-73
2022/07/05 02:27:28;;;;;;;;;;;12.30;99.90;;;;;;5166175;27;19931;-73
2022/07/05 02:29:53;;;;;;;;;;;12.30;99.90;;;;;;5144308;27;19930;-73
2022/07/05 02:32:19;;;;;;;;;;;12.30;99.90;;;;;;5143961;27;19919;-73
2022/07/05 02:34:44;;;;;;;;;;;12.30;99.90;;;;;;5145519;27;19923;-73
2022/07/05 02:37:10;;;;;;;;;;;12.30;99.90;;;;;;5146006;27;20014;-73
2022/07/05 02:39:35;;;;;;;;;;;12.40;99.90;;;;;;5143085;27;19923;-73
2022/07/05 02:42:01;;;;;;;;;;;12.50;99.90;;;;;;5166389;27;19923;-73
2022/07/05 02:44:26;;;;;;;;;;;12.50;99.90;;;;;;5162829;27;20378;-73
2022/07/05 02:46:52;;;;;;;;;;;12.50;99.90;;;;;;5145499;27;19981;-74
2022/07/05 02:49:17;;;;;;;;;;;12.50;99.90;;;;;;5144919;27;19953;-73
2022/07/05 02:51:43;;;;;;;;;;;12.60;99.90;;;;;;5144692;27;19923;-73
2022/07/05 02:54:08;;;;;;;;;;;12.60;99.90;;;;;;5143464;27;19923;-73
2022/07/05 02:56:34;;;;;;;;;;;12.80;99.90;;;;;;5164979;27;19983;-73
2022/07/05 02:58:59;;;;;;;;;;;12.70;99.90;;;;;;5161747;27;19976;-73
2022/07/05 03:01:25;;;;;;;;;;;12.80;99.90;;;;;;5165654;27;19922;-73
2022/07/05 03:03:50;;;;;;;;;;;12.80;99.90;;;;;;5162579;27;19942;-73
2022/07/05 03:06:16;;;;;;;;;;;12.80;99.90;;;;;;5163676;27;19923;-73
2022/07/05 03:08:42;;;;;;;;;;;12.80;99.90;;;;;;5140884;27;20397;-73
2022/07/05 03:11:07;;;;;;;;;;;12.90;99.90;;;;;;5143745;27;19930;-73
2022/07/05 03:13:33;;;;;;;;;;;12.90;99.90;;;;;;5161852;27;19926;-73
2022/07/05 03:15:58;;;;;;;;;;;13.20;99.90;;;;;;5165460;27;19937;-74
2022/07/05 03:18:30;;;;;;;;;;;13.00;99.90;;;;;;5143732;27;19927;-73
2022/07/05 03:20:55;;;;;;;;;;;14.60;99.90;;;;;;5138336;27;19941;-73
2022/07/05 03:23:21;;;;;;;;;;;13.00;99.90;;;;;;5147175;27;20437;-73
2022/07/05 03:25:46;;;;;;;;;;;13.40;99.90;;;;;;5143527;27;19918;-73
2022/07/05 03:28:12;;;;;;;;;;;13.00;99.90;;;;;;5163085;27;19923;-74
2022/07/05 03:30:37;;;;;;;;;;;13.10;99.90;;;;;;5145198;27;19981;-74
2022/07/05 03:33:03;;;;;;;;;;;12.90;99.90;;;;;;5160730;27;19923;-73
2022/07/05 03:35:28;;;;;;;;;;;12.90;99.90;;;;;;5143491;27;20385;-74
2022/07/05 03:37:54;;;;;;;;;;;13.20;99.90;;;;;;5147075;27;19927;-73
2022/07/05 03:40:19;;;;;;;;;;;12.80;99.90;;;;;;5142987;27;19923;-73
2022/07/05 03:42:45;;;;;;;;;;;12.90;99.90;;;;;;5162292;27;19937;-73
2022/07/05 03:45:10;;;;;;;;;;;13.00;99.90;;;;;;5144527;27;19929;-72
2022/07/05 03:47:36;;;;;;;;;;;13.00;99.90;;;;;;5162611;27;20389;-73
2022/07/05 03:50:03;;;;;;;;;;;13.00;99.90;;;;;;5145388;27;19930;-73
2022/07/05 03:52:28;;;;;;;;;;;13.00;99.90;;;;;;5143764;27;19971;-73
2022/07/05 03:54:54;;;;;;;;;;;13.00;99.90;;;;;;5164566;27;19922;-73
2022/07/05 03:57:20;;;;;;;;;;;12.90;99.90;;;;;;5161395;27;19969;-74
2022/07/05 03:59:45;;;;;;;;;;;12.90;99.90;;;;;;5143095;27;20434;-73
2022/07/05 04:02:11;;;;;;;;;;;12.90;99.90;;;;;;5164031;27;19935;-73
2022/07/05 04:04:36;;;;;;;;;;;13.00;99.90;;;;;;5147035;27;19929;-73
2022/07/05 04:07:02;;;;;;;;;;;13.00;99.90;;;;;;5166885;27;20343;-74
2022/07/05 04:09:27;;;;;;;;;;;13.00;99.90;;;;;;5148782;27;19923;-74
2022/07/05 04:11:53;;;;;;;;;;;13.20;99.90;;;;;;5147235;27;20388;-73
2022/07/05 04:14:19;;;;;;;;;;;13.00;99.90;;;;;;5150401;27;20388;-74
2022/07/05 04:16:44;;;;;;;;;;;13.00;99.90;;;;;;5146450;27;19927;-74
2022/07/05 04:19:10;;;;;;;;;;;13.00;99.90;;;;;;5149631;27;19923;-73
2022/07/05 04:21:36;;;;;;;;;;;13.00;99.90;;;;;;5166338;27;19922;-74
2022/07/05 04:24:01;;;;;;;;;;;13.00;99.90;;;;;;5166381;27;19923;-74
2022/07/05 04:26:27;;;;;;;;;;;13.90;99.90;;;;;;5167150;27;20487;-73
2022/07/05 04:28:52;;;;;;;;;;;13.30;99.90;;;;;;5141225;27;19970;-74
2022/07/05 04:31:18;;;;;;;;;;;13.10;99.90;;;;;;5150083;27;19949;-73
2022/07/05 04:33:43;;;;;;;;;;;13.10;99.90;;;;;;5165156;27;19923;-73
2022/07/05 04:36:09;;;;;;;;;;;13.10;99.90;;;;;;5163069;27;20262;-73
2022/07/05 04:38:34;;;;;;;;;;;13.10;99.90;;;;;;5148672;27;19927;-73
2022/07/05 04:41:00;;;;;;;;;;;13.20;99.90;;;;;;5166342;27;19918;-73
2022/07/05 04:43:25;;;;;;;;;;;13.50;99.90;;;;;;5144985;27;19923;-73
2022/07/05 04:45:51;;;;;;;;;;;13.30;99.90;;;;;;5163937;27;20294;-74
2022/07/05 04:48:16;;;;;;;;;;;13.40;99.90;;;;;;5149328;27;19975;-73
2022/07/05 04:50:42;;;;;;;;;;;13.40;99.90;;;;;;5164165;27;19959;-73
2022/07/05 04:53:11;;;;;;;;;;;14.00;99.90;;;;;;5149020;27;19997;-73
2022/07/05 04:55:36;;;;;;;;;;;13.60;99.90;;;;;;5146274;27;19919;-73
2022/07/05 04:58:02;;;;;;;;;;;14.20;99.90;;;;;;5145515;27;21158;-73
2022/07/05 05:00:27;;;;;;;;;;;13.90;99.90;;;;;;5148007;27;19923;-73
2022/07/05 05:02:53;;;;;;;;;;;14.00;99.90;;;;;;5147074;27;19922;-73
2022/07/05 05:05:18;;;;;;;;;;;14.20;99.90;;;;;;5146079;27;19967;-73
2022/07/05 05:07:44;;;;;;;;;;;14.20;99.90;;;;;;5167489;27;20346;-73
2022/07/05 05:10:11;;;;;;;;;;;14.30;99.90;;;;;;5161231;27;19934;-74
2022/07/05 05:12:36;;;;;;;;;;;14.50;99.90;;;;;;5166665;27;19926;-74
2022/07/05 05:15:02;;;;;;;;;;;14.60;99.90;;;;;;5164467;27;19919;-74
2022/07/05 05:17:35;;;;;;;;;;;14.70;99.90;;;;;;5147953;27;19975;-74
2022/07/05 05:20:08;;;;;;;;;;;14.80;99.90;;;;;;5144623;27;19919;-76
2022/07/05 05:22:33;;;;;;;;;;;14.90;99.90;;;;;;5145735;27;19973;-74
2022/07/05 05:24:59;;;;;;;;;;;15.00;99.90;;;;;;5145930;27;20324;-73
2022/07/05 05:27:24;;;;;;;;;;;15.10;99.90;;;;;;5165961;27;20382;-72
2022/07/05 05:29:50;;;;;;;;;;;15.10;99.90;;;;;;5165315;27;19975;-72
2022/07/05 05:32:15;;;;;;;;;;;15.30;99.90;;;;;;5141107;27;19971;-75
2022/07/05 05:34:41;;;;;;;;;;;15.20;99.90;;;;;;5167067;27;20297;-71
2022/07/05 05:37:06;;;;;;;;;;;15.90;99.90;;;;;;5144924;27;19973;-79
2022/07/05 05:39:32;;;;;;;;;;;15.30;99.90;;;;;;5166413;27;20370;-78
2022/07/05 05:41:57;;;;;;;;;;;15.40;99.90;;;;;;5160181;27;19926;-74
2022/07/05 05:44:23;;;;;;;;;;;15.50;99.90;;;;;;5165703;27;19930;-71
2022/07/05 05:46:48;;;;;;;;;;;15.50;99.90;;;;;;5144767;27;20396;-72
2022/07/05 05:49:14;;;;;;;;;;;15.60;99.90;;;;;;5145659;27;19977;-72
2022/07/05 05:51:39;;;;;;;;;;;15.70;99.90;;;;;;5147812;27;20013;-77
2022/07/05 05:54:05;;;;;;;;;;;15.70;99.90;;;;;;5162705;27;19929;-80
2022/07/05 05:56:30;;;;;;;;;;;15.80;99.90;;;;;;5167527;27;20301;-75
2022/07/05 05:58:56;;;;;;;;;;;15.80;99.90;;;;;;5144727;27;19923;-80
2022/07/05 06:01:21;;;;;;;;;;;15.90;99.90;;;;;;5165220;27;20054;-79
2022/07/05 06:03:47;;;;;;;;;;;15.90;99.90;;;;;;5143532;27;19923;-81
2022/07/05 06:06:12;;;;;;;;;;;15.90;99.90;;;;;;5164301;27;19996;-83
2022/07/05 06:08:38;;;;;;;;;;;16.30;99.90;;;;;;5162484;27;19995;-73
2022/07/05 06:11:04;;;;;;;;;;;16.00;99.90;;;;;;5163431;27;20428;-71
2022/07/05 06:13:29;;;;;;;;;;;16.10;99.90;;;;;;5148123;27;20370;-74
2022/07/05 06:15:55;;;;;;;;;;;16.20;99.90;;;;;;5162433;27;19931;-72
2022/07/05 06:18:20;;;;;;;;;;;16.30;99.90;;;;;;5140301;27;19923;-73
2022/07/05 06:20:46;;;;;;;;;;;16.40;99.90;;;;;;5146713;27;19968;-72
2022/07/05 06:23:11;;;;;;;;;;;16.50;99.90;;;;;;5145454;27;19923;-72
2022/07/05 06:25:37;;;;;;;;;;;16.50;99.90;;;;;;5163358;27;20424;-75
2022/07/05 06:28:04;;;;;;;;;;;16.60;99.90;;;;;;5143431;27;20302;-74
2022/07/05 06:30:30;;;;;;;;;;;16.70;99.90;;;;;;5165720;27;20009;-74
2022/07/05 06:32:56;;;;;;;;;;;16.80;99.90;;;;;;5162488;27;20374;-73
2022/07/05 06:35:22;;;;;;;;;;;16.90;99.90;;;;;;5139826;27;19923;-74
2022/07/05 06:37:51;;;;;;;;;;;17.00;99.90;;;;;;5162125;27;19923;-74
2022/07/05 06:40:23;;;;;;;;;;;17.10;99.90;;;;;;5147138;27;19923;-75
2022/07/05 06:42:53;;;;;;;;;;;17.10;99.90;;;;;;5162341;27;19927;-74
2022/07/05 06:45:19;;;;;;;;;;;16.60;99.90;;;;;;5147196;27;19920;-73
2022/07/05 06:47:45;;;;;;;;;;;17.10;99.90;;;;;;5143361;27;20038;-73
2022/07/05 06:50:11;;;;;;;;;;;17.10;99.90;;;;;;5163596;27;20376;-73
2022/07/05 06:52:36;;;;;;;;;;;17.30;99.90;;;;;;5164397;27;19922;-81
2022/07/05 06:55:02;;;;;;;;;;;17.30;99.90;;;;;;5144380;27;19927;-73
2022/07/05 06:57:33;;;;;;;;;;;17.20;99.90;;;;;;5164592;27;19989;-74
2022/07/05 06:59:59;;;;;;;;;;;17.10;99.90;;;;;;5145834;27;19967;-74
2022/07/05 07:02:25;;;;;;;;;;;17.00;99.90;;;;;;5142912;27;19930;-74
2022/07/05 07:04:50;;;;;;;;;;;17.10;99.90;;;;;;5165121;27;19970;-73
2022/07/05 07:10:00;;;;;;;;;;;17.20;99.90;;;;;;5160456;27;19923;-73
2022/07/05 07:12:26;;;;;;;;;;;17.40;99.90;;;;;;5141207;27;19929;-74
2022/07/05 07:14:52;;;;;;;;;;;17.40;99.90;;;;;;5162969;27;19929;-75
2022/07/05 07:17:17;;;;;;;;;;;17.50;99.90;;;;;;5143862;27;20278;-75
2022/07/05 07:19:43;;;;;;;;;;;17.70;99.90;;;;;;5146490;27;20021;-75
2022/07/05 07:22:08;;;;;;;;;;;17.50;99.90;;;;;;5143957;27;19953;-75
2022/07/05 07:24:34;;;;;;;;;;;17.40;99.90;;;;;;5163944;27;19930;-73
2022/07/05 07:27:02;;;;;;;;;;;17.70;99.90;;;;;;5141849;27;19922;-75
2022/07/05 07:29:28;;;;;;;;;;;18.50;99.90;;;;;;5143216;27;20029;-73
2022/07/05 07:31:54;;;;;;;;;;;19.30;99.90;;;;;;5162858;27;19967;-73
2022/07/05 07:34:20;;;;;;;;;;;20.00;99.90;;;;;;5161894;27;19927;-74
2022/07/05 07:36:45;;;;;;;;;;;20.70;99.90;;;;;;5149172;27;20265;-74
2022/07/05 07:39:11;;;;;;;;;;;21.20;99.30;;;;;;5142326;27;19923;-73
2022/07/05 07:41:36;;;;;;;;;;;21.00;98.60;;;;;;5164816;27;20442;-73
2022/07/05 07:44:05;;;;;;;;;;;21.10;99.00;;;;;;5166918;27;20382;-73
2022/07/05 07:46:31;;;;;;;;;;;21.20;98.80;;;;;;5148985;27;19923;-73
2022/07/05 07:48:56;;;;;;;;;;;21.70;97.20;;;;;;5148619;27;19930;-74
2022/07/05 07:51:22;;;;;;;;;;;22.40;97.60;;;;;;5144371;27;20397;-74
2022/07/05 07:53:48;;;;;;;;;;;22.50;97.10;;;;;;5149936;27;20297;-74
2022/07/05 07:56:13;;;;;;;;;;;22.60;96.80;;;;;;5165876;27;20294;-74
2022/07/05 07:58:39;;;;;;;;;;;22.90;95.70;;;;;;5169213;27;19923;-75
2022/07/05 08:01:10;;;;;;;;;;;23.40;94.30;;;;;;5144895;27;20397;-74
2022/07/05 08:03:36;;;;;;;;;;;23.70;94.90;;;;;;5166032;27;20029;-75
2022/07/05 08:06:02;;;;;;;;;;;23.80;94.30;;;;;;5149340;27;20009;-74
2022/07/05 08:08:27;;;;;;;;;;;23.70;95.00;;;;;;5148087;27;19922;-75
2022/07/05 08:10:53;;;;;;;;;;;23.70;94.30;;;;;;5166611;27;19969;-74
2022/07/05 08:13:18;;;;;;;;;;;23.90;94.80;;;;;;5149494;27;19923;-74
2022/07/05 08:15:44;;;;;;;;;;;23.40;94.70;;;;;;5162738;27;19926;-74
2022/07/05 08:23:38;;;;;;;;;;;21.20;95.50;;;;;;5161534;27;20009;-74
2022/07/05 08:26:04;;;;;;;;;;;20.70;96.60;;;;;;5160792;27;20063;-73
2022/07/05 08:28:29;;;;;;;;;;;21.00;97.30;;;;;;5167584;27;19922;-74
2022/07/05 08:30:55;;;;;;;;;;;22.10;97.00;;;;;;5166083;27;19926;-75
2022/07/05 08:33:20;;;;;;;;;;;22.40;95.00;;;;;;5167075;27;19919;-74
2022/07/05 08:35:45;;;;;;;;;;;21.90;94.10;;;;;;5143162;27;20390;-74
2022/07/05 08:38:12;;;;;;;;;;;21.80;95.30;;;;;;5165597;27;19923;-75
2022/07/05 08:40:39;;;;;;;;;;;21.80;95.40;;;;;;5168078;27;19930;-74
2022/07/05 08:43:06;;;;;;;;;;;22.30;95.00;;;;;;5164052;27;20339;-75
2022/07/05 08:45:33;;;;;;;;;;;23.10;94.60;;;;;;5162903;27;20342;-76
2022/07/05 08:47:59;;;;;;;;;;;23.30;93.90;;;;;;5165244;27;20404;-75
2022/07/05 08:50:26;;;;;;;;;;;22.90;93.50;;;;;;5167546;27;19958;-75
2022/07/05 08:52:52;;;;;;;;;;;22.10;93.80;;;;;;5147005;27;19977;-75
2022/07/05 08:55:18;;;;;;;;;;;22.40;93.60;;;;;;5148594;27;19922;-74
2022/07/05 08:57:43;;;;;;;;;;;22.80;92.20;;;;;;5166234;27;19978;-75
2022/07/05 09:00:09;;;;;;;;;;;23.40;91.80;;;;;;5164840;27;19923;-74
2022/07/05 09:02:35;;;;;;;;;;;24.00;90.70;;;;;;5146605;27;19926;-74
2022/07/05 09:05:01;;;;;;;;;;;24.20;92.60;;;;;;5163825;27;19946;-75
2022/07/05 09:07:29;;;;;;;;;;;24.20;93.40;;;;;;5149435;27;19923;-74
2022/07/05 09:09:58;;;;;;;;;;;23.50;93.00;;;;;;5145571;27;20157;-74
2022/07/05 09:12:24;;;;;;;;;;;22.80;93.80;;;;;;5167611;27;19929;-74
2022/07/05 09:14:50;;;;;;;;;;;22.40;94.30;;;;;;5146800;27;19930;-73
2022/07/05 09:17:15;;;;;;;;;;;22.30;94.40;;;;;;5160814;27;19927;-75
2022/07/05 09:19:41;;;;;;;;;;;22.60;94.20;;;;;;5147080;27;19975;-75
2022/07/05 09:22:08;;;;;;;;;;;23.30;94.10;;;;;;5166202;27;19950;-75
2022/07/05 09:24:46;;;;;;;;;;;24.00;94.00;;;;;;5145159;27;19927;-75
2022/07/05 09:27:11;;;;;;;;;;;24.20;93.00;;;;;;5144848;27;19933;-75
2022/07/05 09:29:37;;;;;;;;;;;23.70;92.30;;;;;;5165207;27;20328;-75
2022/07/05 09:32:03;;;;;;;;;;;23.60;92.70;;;;;;5147235;27;19918;-75
2022/07/05 09:34:29;;;;;;;;;;;24.00;93.00;;;;;;5145632;27;20021;-75
2022/07/05 09:36:58;;;;;;;;;;;24.10;92.00;;;;;;5144903;27;20382;-76
2022/07/05 09:39:27;;;;;;;;;;;24.60;91.70;;;;;;5159507;27;19923;-76
2022/07/05 09:42:08;;;;;;;;;;;24.90;92.60;;;;;;5141213;27;19946;-76
2022/07/05 09:44:35;;;;;;;;;;;25.00;92.10;;;;;;5146691;27;20324;-76
2022/07/05 09:47:11;;;;;;;;;;;25.40;91.00;;;;;;5147193;27;19923;-76
2022/07/05 09:49:47;;;;;;;;;;;25.20;91.10;;;;;;5146819;27;19923;-77
2022/07/05 09:52:29;;;;;;;;;;;25.60;91.00;;;;;;5143596;27;20018;-77
2022/07/05 09:55:02;;;;;;;;;;;25.70;90.40;;;;;;5141622;27;19927;-78
2022/07/05 09:57:28;;;;;;;;;;;25.80;90.20;;;;;;5163699;27;19931;-77
2022/07/05 10:00:04;;;;;;;;;;;25.70;89.30;;;;;;5165826;27;19988;-77
2022/07/05 10:02:34;;;;;;;;;;;25.50;90.50;;;;;;5144116;27;19956;-77
2022/07/05 10:05:12;;;;;;;;;;;25.50;90.90;;;;;;5144411;27;19927;-77
2022/07/05 10:07:40;;;;;;;;;;;25.40;91.30;;;;;;5143546;27;19978;-73
2022/07/05 10:10:06;;;;;;;;;;;24.70;91.90;;;;;;5163341;27;19924;-77
2022/07/05 10:12:35;;;;;;;;;;;24.50;92.40;;;;;;5145000;27;20483;-78
2022/07/05 10:15:01;;;;;;;;;;;24.90;92.50;;;;;;5164359;27;20378;-74
2022/07/05 10:17:27;;;;;;;;;;;24.90;92.60;;;;;;5144346;27;20389;-74
2022/07/05 10:19:54;;;;;;;;;;;25.00;91.40;;;;;;5144466;27;19929;-73
2022/07/05 10:22:19;;;;;;;;;;;25.10;91.30;;;;;;5165949;27;20009;-71
2022/07/05 10:24:45;;;;;;;;;;;24.80;91.90;;;;;;5144843;27;20014;-68
2022/07/05 10:27:12;;;;;;;;;;;24.50;92.40;;;;;;5165972;27;20028;-71
2022/07/05 10:29:38;;;;;;;;;;;24.30;91.70;;;;;;5144366;27;19931;-72
2022/07/05 10:32:05;;;;;;;;;;;24.50;91.50;;;;;;5162364;27;20389;-72
2022/07/05 10:34:32;;;;;;;;;;;24.30;92.20;;;;;;5145629;27;19967;-70
2022/07/05 10:36:58;;;;;;;;;;;23.80;92.80;;;;;;5164234;27;20315;-71
2022/07/05 10:39:25;;;;;;;;;;;23.20;93.70;;;;;;5144796;27;19923;-72
2022/07/05 10:41:51;;;;;;;;;;;22.60;94.50;;;;;;5146310;27;19971;-72
2022/07/05 10:44:30;;;;;;;;;;;22.10;95.20;;;;;;5139974;27;20019;-72
2022/07/05 10:47:07;;;;;;;;;;;21.80;95.60;;;;;;5145054;27;19930;-71
2022/07/05 10:49:33;;;;;;;;;;;21.40;96.10;;;;;;5164703;27;19923;-70
2022/07/05 10:51:58;;;;;;;;;;;21.30;96.30;;;;;;5163997;27;19926;-72
2022/07/05 10:54:24;;;;;;;;;;;21.30;96.60;;;;;;5163670;27;19927;-73
2022/07/05 10:57:08;;;;;;;;;;;21.40;96.50;;;;;;5146101;27;19922;-70
2022/07/05 10:59:53;;;;;;;;;;;21.40;96.40;;;;;;5143235;27;19975;-71
2022/07/05 11:02:19;;;;;;;;;;;21.30;96.20;;;;;;5142241;27;19923;-71
2022/07/05 11:04:44;;;;;;;;;;;21.50;95.90;;;;;;5136144;27;19933;-76
2022/07/05 11:07:10;;;;;;;;;;;21.70;95.00;;;;;;5131372;27;20375;-79
2022/07/05 11:09:36;;;;;;;;;;;21.90;95.00;;;;;;5142384;27;19923;-74
2022/07/05 11:12:02;;;;;;;;;;;22.00;94.90;;;;;;5139000;27;19930;-73
2022/07/05 11:14:32;;;;;;;;;;;21.90;95.10;;;;;;5146540;27;19923;-73
2022/07/05 11:17:11;;;;;;;;;;;22.00;93.80;;;;;;5143669;27;19923;-73
2022/07/05 11:19:55;;;;;;;;;;;22.10;94.40;;;;;;5158300;27;19923;-78
2022/07/05 11:22:21;;;;;;;;;;;22.30;95.00;;;;;;5160368;27;19998;-74
2022/07/05 11:24:47;;;;;;;;;;;22.60;93.70;;;;;;5161393;27;20005;-73
2022/07/05 11:27:12;;;;;;;;;;;23.00;94.00;;;;;;5162211;27;20339;-74
2022/07/05 11:29:43;;;;;;;;;;;22.90;92.70;;;;;;5165454;27;19927;-71
2022/07/05 11:32:09;;;;;;;;;;;22.80;93.20;;;;;;5142285;27;19938;-71
2022/07/05 11:34:35;;;;;;;;;;;22.70;93.90;;;;;;5140452;27;19930;-71
2022/07/05 11:37:10;;;;;;;;;;;23.10;94.00;;;;;;5162368;27;19933;-72
2022/07/05 11:39:36;;;;;;;;;;;23.30;93.60;;;;;;5157708;27;19945;-71
2022/07/05 11:42:01;;;;;;;;;;;23.40;93.70;;;;;;5165351;27;19923;-71
2022/07/05 11:44:31;;;;;;;;;;;23.20;93.80;;;;;;5159310;27;19924;-71
2022/07/05 11:46:57;;;;;;;;;;;22.90;93.30;;;;;;5150017;27;20035;-73
2022/07/05 11:49:23;;;;;;;;;;;22.80;93.40;;;;;;5154554;27;19923;-73
2022/07/05 11:52:07;;;;;;;;;;;22.90;94.20;;;;;;5137592;27;19927;-72
2022/07/05 11:54:33;;;;;;;;;;;22.40;93.50;;;;;;5160792;27;20366;-72
2022/07/05 11:56:59;;;;;;;;;;;21.80;93.40;;;;;;5157093;27;20013;-69
2022/07/05 11:59:25;;;;;;;;;;;21.80;94.30;;;;;;5165847;27;20354;-71
2022/07/05 12:01:51;;;;;;;;;;;21.60;94.10;;;;;;5161513;27;19968;-70
2022/07/05 12:04:27;;;;;;;;;;;21.40;93.50;;;;;;5133622;27;19929;-73
2022/07/05 12:06:53;;;;;;;;;;;21.20;93.50;;;;;;5152936;27;19954;-70
2022/07/05 12:09:22;;;;;;;;;;;21.00;93.70;;;;;;5158965;27;20345;-70
2022/07/05 12:14:51;;;;;;;;;;;21.10;94.30;;;;;;5160274;27;19927;-72
2022/07/05 12:17:18;;;;;;;;;;;21.10;94.30;;;;;;5134693;27;20011;-72
2022/07/05 12:19:44;;;;;;;;;;;21.00;94.90;;;;;;5135965;27;19923;-73
2022/07/05 12:22:10;;;;;;;;;;;21.00;94.40;;;;;;5136529;27;19934;-73
2022/07/05 12:24:35;;;;;;;;;;;21.00;95.00;;;;;;5138890;27;19923;-72
2022/07/05 12:27:01;;;;;;;;;;;21.00;95.20;;;;;;5158550;27;19927;-66
2022/07/05 12:29:27;;;;;;;;;;;21.30;94.90;;;;;;5138533;27;19992;-71
2022/07/05 12:32:08;;;;;;;;;;;21.60;94.50;;;;;;5137022;27;19952;-77
2022/07/05 12:34:34;;;;;;;;;;;21.60;94.40;;;;;;5165046;27;19923;-77
2022/07/05 12:37:00;;;;;;;;;;;21.90;94.40;;;;;;5149453;27;19929;-74
2022/07/05 12:39:25;;;;;;;;;;;21.80;94.50;;;;;;5165052;27;19934;-74
2022/07/05 12:41:51;;;;;;;;;;;21.80;94.30;;;;;;5149401;27;20292;-74
2022/07/05 12:44:20;;;;;;;;;;;21.90;94.50;;;;;;5146171;27;19923;-71
2022/07/05 12:46:46;;;;;;;;;;;21.90;94.60;;;;;;5148918;27;20015;-74
2022/07/05 12:49:12;;;;;;;;;;;22.10;94.70;;;;;;5164959;27;20366;-76
2022/07/05 12:51:41;;;;;;;;;;;22.20;94.50;;;;;;5163490;27;19979;-73
2022/07/05 12:59:37;;;;;;;;;;;23.20;93.80;;;;;;5155279;27;19923;-70
2022/07/05 13:02:04;;;;;;;;;;;23.70;93.60;;;;;;5157574;27;20427;-73
2022/07/05 13:04:29;;;;;;;;;;;23.90;92.80;;;;;;5159905;27;20421;-75
2022/07/05 13:06:59;;;;;;;;;;;24.00;92.60;;;;;;5153612;27;19931;-72
2022/07/05 13:09:27;;;;;;;;;;;24.20;92.00;;;;;;5155044;27;19923;-72
2022/07/05 13:12:04;;;;;;;;;;;24.20;92.70;;;;;;5146494;27;19923;-72
2022/07/05 13:14:30;;;;;;;;;;;24.10;92.00;;;;;;5145315;27;20366;-71
2022/07/05 13:16:55;;;;;;;;;;;24.00;92.10;;;;;;5153347;27;19944;-72
2022/07/05 13:19:21;;;;;;;;;;;24.20;92.30;;;;;;5141816;27;20366;-73
2022/07/05 13:21:47;;;;;;;;;;;24.00;91.90;;;;;;5164712;27;19923;-71
2022/07/05 13:24:12;;;;;;;;;;;23.60;91.70;;;;;;5141696;27;19975;-73
2022/07/05 13:26:38;;;;;;;;;;;23.20;92.40;;;;;;5138364;27;19931;-72
2022/07/05 13:29:03;;;;;;;;;;;23.10;92.80;;;;;;5144410;27;20389;-72
2022/07/05 13:31:30;;;;;;;;;;;22.90;92.80;;;;;;5147385;27;19954;-77
2022/07/05 13:33:56;;;;;;;;;;;22.80;93.10;;;;;;5161057;27;19933;-74
2022/07/05 13:36:22;;;;;;;;;;;22.70;93.20;;;;;;5148227;27;19922;-82
2022/07/05 13:38:47;;;;;;;;;;;22.80;93.20;;;;;;5142176;27;19923;-77
2022/07/05 13:41:13;;;;;;;;;;;22.60;93.40;;;;;;5163390;27;19949;-77
2022/07/05 13:43:39;;;;;;;;;;;22.90;94.00;;;;;;5144079;27;20397;-76
2022/07/05 13:46:05;;;;;;;;;;;23.20;94.00;;;;;;5162641;27;19938;-73
2022/07/05 13:48:31;;;;;;;;;;;23.70;93.40;;;;;;5145406;27;19958;-72
2022/07/05 13:50:56;;;;;;;;;;;23.60;92.10;;;;;;5144206;27;19954;-72
2022/07/05 13:53:22;;;;;;;;;;;23.40;93.00;;;;;;5161729;27;19930;-72
2022/07/05 13:55:47;;;;;;;;;;;23.70;93.00;;;;;;5163271;27;20010;-77
2022/07/05 13:58:13;;;;;;;;;;;23.50;92.40;;;;;;5145254;27;19955;-74
2022/07/05 14:00:39;;;;;;;;;;;23.50;92.60;;;;;;5148240;27;20390;-74
2022/07/05 14:03:05;;;;;;;;;;;23.70;92.70;;;;;;5144457;27;19973;-77
2022/07/05 14:05:31;;;;;;;;;;;23.70;93.00;;;;;;5166474;27;19923;-75
2022/07/05 14:07:56;;;;;;;;;;;23.70;92.30;;;;;;5128165;27;19956;-86
2022/07/05 14:10:22;;;;;;;;;;;23.50;92.30;;;;;;5140701;27;19976;-85
2022/07/05 14:12:47;;;;;;;;;;;23.80;92.70;;;;;;5143179;27;19973;-84
2022/07/05 14:15:13;;;;;;;;;;;23.70;92.60;;;;;;5143492;27;19976;-83
2022/07/05 14:17:39;;;;;;;;;;;23.80;92.50;;;;;;5144269;27;20392;-82
2022/07/05 14:20:05;;;;;;;;;;;24.00;93.00;;;;;;5139074;27;19919;-83
2022/07/05 14:22:30;;;;;;;;;;;24.30;93.00;;;;;;5161450;27;20422;-80
2022/07/05 14:24:56;;;;;;;;;;;24.30;92.30;;;;;;5140759;27;19931;-81
2022/07/05 14:27:21;;;;;;;;;;;24.20;92.50;;;;;;5133708;27;19923;-84
2022/07/05 14:29:47;;;;;;;;;;;24.50;91.50;;;;;;5155346;27;20346;-83